sensor_id;sensor_type;location;lat;lon;timestamp;P1;durP1;ratioP1;P2;durP2;ratioP2
15679;SDS011;15488;48.114;11.532;2023-05-10T00:01:24;1.53;;;0.70;;
15679;SDS011;15488;48.114;11.532;2023-05-10T00:03:51;0.70;;;0.70;;
15679;SDS011;15488;48.114;11.532;2023-05-10T00:06:20;0.70;;;0.70;;
15679;SDS011;15488;48.114;11.532;2023-05-10T00:08:48;0.50;;;0.50;;
15679;SDS011;15488;48.114;11.532;2023-05-10T00:11:15;1.57;;;0.53;;
15679;SDS011;15488;48.114;11.532;2023-05-10T00:13:43;1.03;;;0.50;;
15679;SDS011;15488;48.114;11.532;2023-05-10T00:16:10;1.53;;;0.60;;
15679;SDS011;15488;48.114;11.532;2023-05-10T00:18:38;0.60;;;0.60;;
15679;SDS011;15488;48.114;11.532;2023-05-10T00:21:06;1.17;;;0.70;;
15679;SDS011;15488;48.114;11.532;2023-05-10T00:23:34;0.87;;;0.80;;
15679;SDS011;15488;48.114;11.532;2023-05-10T00:26:02;1.00;;;0.60;;
15679;SDS011;15488;48.114;11.532;2023-05-10T00:28:30;1.07;;;0.60;;
15679;SDS011;15488;48.114;11.532;2023-05-10T00:30:57;1.00;;;0.53;;
15679;SDS011;15488;48.114;11.532;2023-05-10T00:33:25;0.60;;;0.60;;
15679;SDS011;15488;48.114;11.532;2023-05-10T00:35:52;0.77;;;0.60;;
15679;SDS011;15488;48.114;11.532;2023-05-10T00:38:19;0.53;;;0.53;;
15679;SDS011;15488;48.114;11.532;2023-05-10T00:40:48;0.50;;;0.50;;
15679;SDS011;15488;48.114;11.532;2023-05-10T00:43:16;0.50;;;0.50;;
15679;SDS011;15488;48.114;11.532;2023-05-10T00:45:43;0.40;;;0.40;;
15679;SDS011;15488;48.114;11.532;2023-05-10T00:48:11;0.53;;;0.53;;
15679;SDS011;15488;48.114;11.532;2023-05-10T00:50:39;0.40;;;0.40;;
15679;SDS011;15488;48.114;11.532;2023-05-10T00:53:07;0.40;;;0.40;;
15679;SDS011;15488;48.114;11.532;2023-05-10T00:55:35;0.43;;;0.43;;
15679;SDS011;15488;48.114;11.532;2023-05-10T00:58:04;0.40;;;0.40;;
15679;SDS011;15488;48.114;11.532;2023-05-10T01:00:32;0.50;;;0.40;;
15679;SDS011;15488;48.114;11.532;2023-05-10T01:03:00;0.40;;;0.40;;
15679;SDS011;15488;48.114;11.532;2023-05-10T01:05:28;0.40;;;0.40;;
15679;SDS011;15488;48.114;11.532;2023-05-10T01:07:56;0.40;;;0.30;;
15679;SDS011;15488;48.114;11.532;2023-05-10T01:10:24;0.40;;;0.30;;
15679;SDS011;15488;48.114;11.532;2023-05-10T01:12:52;0.43;;;0.40;;
15679;SDS011;15488;48.114;11.532;2023-05-10T01:15:21;0.50;;;0.33;;
15679;SDS011;15488;48.114;11.532;2023-05-10T01:17:49;0.40;;;0.40;;
15679;SDS011;15488;48.114;11.532;2023-05-10T01:20:17;0.50;;;0.33;;
15679;SDS011;15488;48.114;11.532;2023-05-10T01:22:51;0.30;;;0.30;;
15679;SDS011;15488;48.114;11.532;2023-05-10T01:25:49;0.70;;;0.30;;
15679;SDS011;15488;48.114;11.532;2023-05-10T01:28:48;0.87;;;0.30;;
15679;SDS011;15488;48.114;11.532;2023-05-10T01:31:53;0.30;;;0.30;;
15679;SDS011;15488;48.114;11.532;2023-05-10T01:34:32;0.30;;;0.30;;
15679;SDS011;15488;48.114;11.532;2023-05-10T01:37:05;0.90;;;0.40;;
15679;SDS011;15488;48.114;11.532;2023-05-10T01:39:36;0.30;;;0.30;;
15679;SDS011;15488;48.114;11.532;2023-05-10T01:42:11;0.30;;;0.30;;
15679;SDS011;15488;48.114;11.532;2023-05-10T01:44:46;0.30;;;0.30;;
15679;SDS011;15488;48.114;11.532;2023-05-10T01:47:25;0.40;;;0.30;;
15679;SDS011;15488;48.114;11.532;2023-05-10T01:49:57;0.63;;;0.30;;
15679;SDS011;15488;48.114;11.532;2023-05-10T01:52:30;0.30;;;0.30;;
15679;SDS011;15488;48.114;11.532;2023-05-10T01:55:04;0.53;;;0.33;;
15679;SDS011;15488;48.114;11.532;2023-05-10T01:57:36;1.00;;;0.20;;
15679;SDS011;15488;48.114;11.532;2023-05-10T02:00:06;0.80;;;0.20;;
15679;SDS011;15488;48.114;11.532;2023-05-10T02:02:37;0.30;;;0.30;;
15679;SDS011;15488;48.114;11.532;2023-05-10T02:05:07;0.70;;;0.30;;
15679;SDS011;15488;48.114;11.532;2023-05-10T02:07:35;0.47;;;0.30;;
15679;SDS011;15488;48.114;11.532;2023-05-10T02:10:04;0.77;;;0.30;;
15679;SDS011;15488;48.114;11.532;2023-05-10T02:12:35;0.30;;;0.30;;
15679;SDS011;15488;48.114;11.532;2023-05-10T02:15:04;0.60;;;0.30;;
15679;SDS011;15488;48.114;11.532;2023-05-10T02:17:34;0.30;;;0.30;;
15679;SDS011;15488;48.114;11.532;2023-05-10T02:20:04;2.50;;;0.43;;
15679;SDS011;15488;48.114;11.532;2023-05-10T02:22:32;0.33;;;0.30;;
15679;SDS011;15488;48.114;11.532;2023-05-10T02:25:02;0.73;;;0.30;;
15679;SDS011;15488;48.114;11.532;2023-05-10T02:27:31;0.97;;;0.40;;
15679;SDS011;15488;48.114;11.532;2023-05-10T02:29:59;0.60;;;0.40;;
15679;SDS011;15488;48.114;11.532;2023-05-10T02:32:28;0.60;;;0.40;;
15679;SDS011;15488;48.114;11.532;2023-05-10T02:34:57;0.70;;;0.30;;
15679;SDS011;15488;48.114;11.532;2023-05-10T02:37:26;0.57;;;0.37;;
15679;SDS011;15488;48.114;11.532;2023-05-10T02:39:54;1.47;;;0.47;;
15679;SDS011;15488;48.114;11.532;2023-05-10T02:42:23;1.07;;;0.40;;
15679;SDS011;15488;48.114;11.532;2023-05-10T02:44:53;0.77;;;0.50;;
15679;SDS011;15488;48.114;11.532;2023-05-10T02:47:25;0.60;;;0.50;;
15679;SDS011;15488;48.114;11.532;2023-05-10T02:49:53;0.60;;;0.50;;
15679;SDS011;15488;48.114;11.532;2023-05-10T02:52:23;0.30;;;0.30;;
15679;SDS011;15488;48.114;11.532;2023-05-10T02:54:55;0.30;;;0.30;;
15679;SDS011;15488;48.114;11.532;2023-05-10T02:57:28;0.53;;;0.50;;
15679;SDS011;15488;48.114;11.532;2023-05-10T02:59:58;0.40;;;0.40;;
15679;SDS011;15488;48.114;11.532;2023-05-10T03:02:26;0.60;;;0.30;;
15679;SDS011;15488;48.114;11.532;2023-05-10T03:04:55;1.57;;;0.30;;
15679;SDS011;15488;48.114;11.532;2023-05-10T03:07:24;0.30;;;0.30;;
15679;SDS011;15488;48.114;11.532;2023-05-10T03:09:51;0.77;;;0.50;;
15679;SDS011;15488;48.114;11.532;2023-05-10T03:12:21;0.30;;;0.30;;
15679;SDS011;15488;48.114;11.532;2023-05-10T03:15:00;0.40;;;0.20;;
15679;SDS011;15488;48.114;11.532;2023-05-10T03:17:35;0.20;;;0.20;;
15679;SDS011;15488;48.114;11.532;2023-05-10T03:20:10;0.20;;;0.20;;
15679;SDS011;15488;48.114;11.532;2023-05-10T03:22:44;0.20;;;0.20;;
15679;SDS011;15488;48.114;11.532;2023-05-10T03:25:14;1.33;;;0.20;;
15679;SDS011;15488;48.114;11.532;2023-05-10T03:27:43;0.83;;;0.20;;
15679;SDS011;15488;48.114;11.532;2023-05-10T03:30:12;0.20;;;0.20;;
15679;SDS011;15488;48.114;11.532;2023-05-10T03:32:40;0.20;;;0.20;;
15679;SDS011;15488;48.114;11.532;2023-05-10T03:35:08;0.73;;;0.40;;
15679;SDS011;15488;48.114;11.532;2023-05-10T03:37:36;1.83;;;0.20;;
15679;SDS011;15488;48.114;11.532;2023-05-10T03:40:06;2.00;;;0.20;;
15679;SDS011;15488;48.114;11.532;2023-05-10T03:42:34;0.97;;;0.20;;
15679;SDS011;15488;48.114;11.532;2023-05-10T03:45:01;0.77;;;0.23;;
15679;SDS011;15488;48.114;11.532;2023-05-10T03:47:29;0.90;;;0.10;;
15679;SDS011;15488;48.114;11.532;2023-05-10T03:49:57;0.37;;;0.20;;
15679;SDS011;15488;48.114;11.532;2023-05-10T03:52:24;0.30;;;0.30;;
15679;SDS011;15488;48.114;11.532;2023-05-10T03:54:52;0.23;;;0.20;;
15679;SDS011;15488;48.114;11.532;2023-05-10T03:57:21;0.40;;;0.20;;
15679;SDS011;15488;48.114;11.532;2023-05-10T03:59:48;0.40;;;0.20;;
15679;SDS011;15488;48.114;11.532;2023-05-10T04:02:15;0.90;;;0.20;;
15679;SDS011;15488;48.114;11.532;2023-05-10T04:04:43;0.50;;;0.20;;
15679;SDS011;15488;48.114;11.532;2023-05-10T04:07:10;0.77;;;0.20;;
15679;SDS011;15488;48.114;11.532;2023-05-10T04:09:38;0.43;;;0.20;;
15679;SDS011;15488;48.114;11.532;2023-05-10T04:12:05;1.03;;;0.23;;
15679;SDS011;15488;48.114;11.532;2023-05-10T04:14:34;0.57;;;0.30;;
15679;SDS011;15488;48.114;11.532;2023-05-10T04:17:02;0.77;;;0.20;;
15679;SDS011;15488;48.114;11.532;2023-05-10T04:19:30;0.20;;;0.20;;
15679;SDS011;15488;48.114;11.532;2023-05-10T04:21:58;0.70;;;0.20;;
15679;SDS011;15488;48.114;11.532;2023-05-10T04:24:25;0.60;;;0.20;;
15679;SDS011;15488;48.114;11.532;2023-05-10T04:26:53;0.67;;;0.30;;
15679;SDS011;15488;48.114;11.532;2023-05-10T04:29:21;0.40;;;0.17;;
15679;SDS011;15488;48.114;11.532;2023-05-10T04:31:50;0.30;;;0.20;;
15679;SDS011;15488;48.114;11.532;2023-05-10T04:34:19;0.27;;;0.23;;
15679;SDS011;15488;48.114;11.532;2023-05-10T04:36:47;0.10;;;0.10;;
15679;SDS011;15488;48.114;11.532;2023-05-10T04:39:15;2.00;;;0.20;;
15679;SDS011;15488;48.114;11.532;2023-05-10T04:41:42;0.57;;;0.20;;
15679;SDS011;15488;48.114;11.532;2023-05-10T04:44:09;0.60;;;0.30;;
15679;SDS011;15488;48.114;11.532;2023-05-10T04:46:37;0.73;;;0.30;;
15679;SDS011;15488;48.114;11.532;2023-05-10T04:49:06;0.20;;;0.20;;
15679;SDS011;15488;48.114;11.532;2023-05-10T04:51:33;2.27;;;0.27;;
15679;SDS011;15488;48.114;11.532;2023-05-10T04:54:01;0.40;;;0.37;;
15679;SDS011;15488;48.114;11.532;2023-05-10T04:56:28;0.37;;;0.30;;
15679;SDS011;15488;48.114;11.532;2023-05-10T04:58:56;0.53;;;0.30;;
15679;SDS011;15488;48.114;11.532;2023-05-10T05:01:23;0.30;;;0.30;;
15679;SDS011;15488;48.114;11.532;2023-05-10T05:03:51;0.40;;;0.30;;
15679;SDS011;15488;48.114;11.532;2023-05-10T05:06:20;0.20;;;0.20;;
15679;SDS011;15488;48.114;11.532;2023-05-10T05:08:47;0.30;;;0.20;;
15679;SDS011;15488;48.114;11.532;2023-05-10T05:11:15;0.40;;;0.30;;
15679;SDS011;15488;48.114;11.532;2023-05-10T05:13:42;0.70;;;0.30;;
15679;SDS011;15488;48.114;11.532;2023-05-10T05:16:10;0.97;;;0.40;;
15679;SDS011;15488;48.114;11.532;2023-05-10T05:18:37;0.60;;;0.13;;
15679;SDS011;15488;48.114;11.532;2023-05-10T05:21:13;0.20;;;0.20;;
15679;SDS011;15488;48.114;11.532;2023-05-10T05:23:42;0.17;;;0.17;;
15679;SDS011;15488;48.114;11.532;2023-05-10T05:26:10;0.57;;;0.30;;
15679;SDS011;15488;48.114;11.532;2023-05-10T05:28:37;0.77;;;0.20;;
15679;SDS011;15488;48.114;11.532;2023-05-10T05:31:05;2.67;;;0.20;;
15679;SDS011;15488;48.114;11.532;2023-05-10T05:33:33;0.20;;;0.10;;
15679;SDS011;15488;48.114;11.532;2023-05-10T05:36:01;0.40;;;0.20;;
15679;SDS011;15488;48.114;11.532;2023-05-10T05:38:29;0.93;;;0.20;;
15679;SDS011;15488;48.114;11.532;2023-05-10T05:40:58;0.97;;;0.20;;
15679;SDS011;15488;48.114;11.532;2023-05-10T05:43:26;0.83;;;0.10;;
15679;SDS011;15488;48.114;11.532;2023-05-10T05:45:53;0.27;;;0.20;;
15679;SDS011;15488;48.114;11.532;2023-05-10T05:48:22;0.20;;;0.20;;
15679;SDS011;15488;48.114;11.532;2023-05-10T05:50:50;0.83;;;0.30;;
15679;SDS011;15488;48.114;11.532;2023-05-10T05:53:21;0.13;;;0.13;;
15679;SDS011;15488;48.114;11.532;2023-05-10T05:55:52;0.43;;;0.10;;
15679;SDS011;15488;48.114;11.532;2023-05-10T05:58:22;0.93;;;0.30;;
15679;SDS011;15488;48.114;11.532;2023-05-10T06:00:50;0.40;;;0.20;;
15679;SDS011;15488;48.114;11.532;2023-05-10T06:03:18;0.57;;;0.20;;
15679;SDS011;15488;48.114;11.532;2023-05-10T06:05:46;0.80;;;0.40;;
15679;SDS011;15488;48.114;11.532;2023-05-10T06:08:14;0.93;;;0.30;;
15679;SDS011;15488;48.114;11.532;2023-05-10T06:10:41;0.90;;;0.50;;
15679;SDS011;15488;48.114;11.532;2023-05-10T06:13:09;0.60;;;0.30;;
15679;SDS011;15488;48.114;11.532;2023-05-10T06:15:38;1.10;;;0.40;;
15679;SDS011;15488;48.114;11.532;2023-05-10T06:18:05;0.47;;;0.20;;
15679;SDS011;15488;48.114;11.532;2023-05-10T06:20:33;0.30;;;0.30;;
15679;SDS011;15488;48.114;11.532;2023-05-10T06:23:00;0.40;;;0.30;;
15679;SDS011;15488;48.114;11.532;2023-05-10T06:25:28;1.13;;;0.43;;
15679;SDS011;15488;48.114;11.532;2023-05-10T06:27:55;0.70;;;0.30;;
15679;SDS011;15488;48.114;11.532;2023-05-10T06:30:23;1.70;;;0.97;;
15679;SDS011;15488;48.114;11.532;2023-05-10T06:32:55;0.70;;;0.47;;
15679;SDS011;15488;48.114;11.532;2023-05-10T06:35:22;0.80;;;0.57;;
15679;SDS011;15488;48.114;11.532;2023-05-10T06:37:50;6.53;;;1.33;;
15679;SDS011;15488;48.114;11.532;2023-05-10T06:40:18;0.70;;;0.40;;
15679;SDS011;15488;48.114;11.532;2023-05-10T06:42:46;1.70;;;0.40;;
15679;SDS011;15488;48.114;11.532;2023-05-10T06:45:13;0.73;;;0.33;;
15679;SDS011;15488;48.114;11.532;2023-05-10T06:47:41;1.60;;;0.60;;
15679;SDS011;15488;48.114;11.532;2023-05-10T06:50:10;1.20;;;0.60;;
15679;SDS011;15488;48.114;11.532;2023-05-10T06:52:38;0.93;;;0.50;;
15679;SDS011;15488;48.114;11.532;2023-05-10T06:55:08;1.30;;;1.00;;
15679;SDS011;15488;48.114;11.532;2023-05-10T06:57:35;1.17;;;0.60;;
15679;SDS011;15488;48.114;11.532;2023-05-10T07:00:03;1.47;;;0.53;;
15679;SDS011;15488;48.114;11.532;2023-05-10T07:02:31;0.77;;;0.60;;
15679;SDS011;15488;48.114;11.532;2023-05-10T07:04:59;0.60;;;0.53;;
15679;SDS011;15488;48.114;11.532;2023-05-10T07:07:28;0.67;;;0.60;;
15679;SDS011;15488;48.114;11.532;2023-05-10T07:09:56;1.20;;;0.57;;
15679;SDS011;15488;48.114;11.532;2023-05-10T07:12:24;1.07;;;0.60;;
15679;SDS011;15488;48.114;11.532;2023-05-10T07:14:51;0.93;;;0.70;;
15679;SDS011;15488;48.114;11.532;2023-05-10T07:17:18;0.60;;;0.60;;
15679;SDS011;15488;48.114;11.532;2023-05-10T07:19:46;0.97;;;0.70;;
15679;SDS011;15488;48.114;11.532;2023-05-10T07:22:14;0.80;;;0.60;;
15679;SDS011;15488;48.114;11.532;2023-05-10T07:24:44;0.97;;;0.70;;
15679;SDS011;15488;48.114;11.532;2023-05-10T07:27:11;0.63;;;0.60;;
15679;SDS011;15488;48.114;11.532;2023-05-10T07:29:39;0.57;;;0.50;;
15679;SDS011;15488;48.114;11.532;2023-05-10T07:32:06;1.67;;;0.60;;
15679;SDS011;15488;48.114;11.532;2023-05-10T07:34:34;2.53;;;1.70;;
15679;SDS011;15488;48.114;11.532;2023-05-10T07:37:01;1.03;;;0.60;;
15679;SDS011;15488;48.114;11.532;2023-05-10T07:39:29;1.57;;;0.80;;
15679;SDS011;15488;48.114;11.532;2023-05-10T07:41:58;1.13;;;0.60;;
15679;SDS011;15488;48.114;11.532;2023-05-10T07:44:25;0.90;;;0.70;;
15679;SDS011;15488;48.114;11.532;2023-05-10T07:46:52;0.43;;;0.43;;
15679;SDS011;15488;48.114;11.532;2023-05-10T07:49:20;0.40;;;0.40;;
15679;SDS011;15488;48.114;11.532;2023-05-10T07:51:49;1.30;;;0.60;;
15679;SDS011;15488;48.114;11.532;2023-05-10T07:54:16;1.57;;;0.60;;
15679;SDS011;15488;48.114;11.532;2023-05-10T07:56:44;1.13;;;0.80;;
15679;SDS011;15488;48.114;11.532;2023-05-10T07:59:16;1.60;;;0.70;;
15679;SDS011;15488;48.114;11.532;2023-05-10T08:01:44;0.90;;;0.43;;
15679;SDS011;15488;48.114;11.532;2023-05-10T08:04:11;0.77;;;0.70;;
15679;SDS011;15488;48.114;11.532;2023-05-10T08:06:39;1.17;;;0.60;;
15679;SDS011;15488;48.114;11.532;2023-05-10T08:09:06;0.60;;;0.60;;
15679;SDS011;15488;48.114;11.532;2023-05-10T08:11:34;0.90;;;0.73;;
15679;SDS011;15488;48.114;11.532;2023-05-10T08:14:01;0.70;;;0.70;;
15679;SDS011;15488;48.114;11.532;2023-05-10T08:16:30;1.00;;;0.70;;
15679;SDS011;15488;48.114;11.532;2023-05-10T08:18:59;0.60;;;0.60;;
15679;SDS011;15488;48.114;11.532;2023-05-10T08:21:27;1.63;;;0.70;;
15679;SDS011;15488;48.114;11.532;2023-05-10T08:23:54;0.43;;;0.40;;
15679;SDS011;15488;48.114;11.532;2023-05-10T08:26:22;0.53;;;0.50;;
15679;SDS011;15488;48.114;11.532;2023-05-10T08:28:50;0.73;;;0.50;;
15679;SDS011;15488;48.114;11.532;2023-05-10T08:31:18;0.63;;;0.60;;
15679;SDS011;15488;48.114;11.532;2023-05-10T08:33:47;0.93;;;0.80;;
15679;SDS011;15488;48.114;11.532;2023-05-10T08:36:16;1.37;;;0.40;;
15679;SDS011;15488;48.114;11.532;2023-05-10T08:38:46;0.63;;;0.63;;
15679;SDS011;15488;48.114;11.532;2023-05-10T08:41:15;1.17;;;0.73;;
15679;SDS011;15488;48.114;11.532;2023-05-10T08:43:43;0.80;;;0.63;;
15679;SDS011;15488;48.114;11.532;2023-05-10T08:46:12;1.40;;;0.60;;
15679;SDS011;15488;48.114;11.532;2023-05-10T08:48:43;0.70;;;0.40;;
15679;SDS011;15488;48.114;11.532;2023-05-10T08:51:13;1.97;;;0.70;;
15679;SDS011;15488;48.114;11.532;2023-05-10T08:53:43;3.70;;;0.60;;
15679;SDS011;15488;48.114;11.532;2023-05-10T08:56:12;0.70;;;0.70;;
15679;SDS011;15488;48.114;11.532;2023-05-10T08:58:40;1.07;;;0.63;;
15679;SDS011;15488;48.114;11.532;2023-05-10T09:01:08;0.73;;;0.63;;
15679;SDS011;15488;48.114;11.532;2023-05-10T09:03:37;1.03;;;0.70;;
15679;SDS011;15488;48.114;11.532;2023-05-10T09:06:05;0.60;;;0.60;;
15679;SDS011;15488;48.114;11.532;2023-05-10T09:08:34;1.57;;;0.57;;
15679;SDS011;15488;48.114;11.532;2023-05-10T09:11:03;0.50;;;0.50;;
15679;SDS011;15488;48.114;11.532;2023-05-10T09:13:31;0.83;;;0.50;;
15679;SDS011;15488;48.114;11.532;2023-05-10T09:15:59;0.93;;;0.50;;
15679;SDS011;15488;48.114;11.532;2023-05-10T09:18:27;0.70;;;0.70;;
15679;SDS011;15488;48.114;11.532;2023-05-10T09:20:55;0.47;;;0.40;;
15679;SDS011;15488;48.114;11.532;2023-05-10T09:23:22;0.40;;;0.33;;
15679;SDS011;15488;48.114;11.532;2023-05-10T09:26:02;0.73;;;0.50;;
15679;SDS011;15488;48.114;11.532;2023-05-10T09:28:31;1.03;;;0.40;;
15679;SDS011;15488;48.114;11.532;2023-05-10T09:30:59;0.43;;;0.30;;
15679;SDS011;15488;48.114;11.532;2023-05-10T09:33:26;0.87;;;0.57;;
15679;SDS011;15488;48.114;11.532;2023-05-10T09:35:54;1.73;;;0.40;;
15679;SDS011;15488;48.114;11.532;2023-05-10T09:38:35;1.00;;;0.30;;
15679;SDS011;15488;48.114;11.532;2023-05-10T09:41:17;0.53;;;0.50;;
15679;SDS011;15488;48.114;11.532;2023-05-10T09:43:45;1.33;;;0.50;;
15679;SDS011;15488;48.114;11.532;2023-05-10T09:46:13;0.60;;;0.60;;
15679;SDS011;15488;48.114;11.532;2023-05-10T09:48:41;1.30;;;0.40;;
15679;SDS011;15488;48.114;11.532;2023-05-10T09:51:10;0.90;;;0.50;;
15679;SDS011;15488;48.114;11.532;2023-05-10T09:53:44;1.10;;;0.60;;
15679;SDS011;15488;48.114;11.532;2023-05-10T09:56:12;0.50;;;0.50;;
15679;SDS011;15488;48.114;11.532;2023-05-10T09:58:40;0.50;;;0.50;;
15679;SDS011;15488;48.114;11.532;2023-05-10T10:01:10;2.30;;;0.60;;
15679;SDS011;15488;48.114;11.532;2023-05-10T10:03:41;0.80;;;0.70;;
15679;SDS011;15488;48.114;11.532;2023-05-10T10:06:09;0.63;;;0.57;;
15679;SDS011;15488;48.114;11.532;2023-05-10T10:08:37;0.50;;;0.40;;
15679;SDS011;15488;48.114;11.532;2023-05-10T10:11:04;0.97;;;0.40;;
15679;SDS011;15488;48.114;11.532;2023-05-10T10:13:32;0.70;;;0.50;;
15679;SDS011;15488;48.114;11.532;2023-05-10T10:16:00;1.07;;;0.80;;
15679;SDS011;15488;48.114;11.532;2023-05-10T10:18:29;1.10;;;0.50;;
15679;SDS011;15488;48.114;11.532;2023-05-10T10:20:57;0.57;;;0.40;;
15679;SDS011;15488;48.114;11.532;2023-05-10T10:23:26;0.70;;;0.60;;
15679;SDS011;15488;48.114;11.532;2023-05-10T10:25:54;0.47;;;0.40;;
15679;SDS011;15488;48.114;11.532;2023-05-10T10:28:24;0.87;;;0.50;;
15679;SDS011;15488;48.114;11.532;2023-05-10T10:31:11;0.53;;;0.50;;
15679;SDS011;15488;48.114;11.532;2023-05-10T10:33:50;1.20;;;0.50;;
15679;SDS011;15488;48.114;11.532;2023-05-10T10:36:23;0.60;;;0.60;;
15679;SDS011;15488;48.114;11.532;2023-05-10T10:38:55;0.57;;;0.57;;
15679;SDS011;15488;48.114;11.532;2023-05-10T10:41:30;0.70;;;0.70;;
15679;SDS011;15488;48.114;11.532;2023-05-10T10:47:04;1.70;;;1.60;;
15679;SDS011;15488;48.114;11.532;2023-05-10T10:49:43;1.00;;;0.90;;
15679;SDS011;15488;48.114;11.532;2023-05-10T10:52:20;2.77;;;0.70;;
15679;SDS011;15488;48.114;11.532;2023-05-10T10:54:52;1.40;;;0.63;;
15679;SDS011;15488;48.114;11.532;2023-05-10T10:57:23;2.53;;;0.70;;
15679;SDS011;15488;48.114;11.532;2023-05-10T11:00:17;1.40;;;0.83;;
15679;SDS011;15488;48.114;11.532;2023-05-10T11:02:51;2.53;;;1.33;;
15679;SDS011;15488;48.114;11.532;2023-05-10T11:05:23;3.47;;;1.07;;
15679;SDS011;15488;48.114;11.532;2023-05-10T11:07:52;0.93;;;0.83;;
15679;SDS011;15488;48.114;11.532;2023-05-10T11:10:20;0.77;;;0.77;;
15679;SDS011;15488;48.114;11.532;2023-05-10T11:12:51;0.77;;;0.77;;
15679;SDS011;15488;48.114;11.532;2023-05-10T11:15:20;0.97;;;0.93;;
15679;SDS011;15488;48.114;11.532;2023-05-10T11:17:57;1.30;;;0.80;;
15679;SDS011;15488;48.114;11.532;2023-05-10T11:20:27;0.70;;;0.67;;
15679;SDS011;15488;48.114;11.532;2023-05-10T11:22:59;0.97;;;0.60;;
15679;SDS011;15488;48.114;11.532;2023-05-10T11:25:41;1.20;;;0.80;;
15679;SDS011;15488;48.114;11.532;2023-05-10T11:28:10;2.23;;;1.10;;
15679;SDS011;15488;48.114;11.532;2023-05-10T11:30:37;2.40;;;1.40;;
15679;SDS011;15488;48.114;11.532;2023-05-10T11:33:07;1.20;;;1.10;;
15679;SDS011;15488;48.114;11.532;2023-05-10T11:35:39;3.30;;;1.17;;
15679;SDS011;15488;48.114;11.532;2023-05-10T11:38:07;2.60;;;1.30;;
15679;SDS011;15488;48.114;11.532;2023-05-10T11:40:35;1.40;;;1.07;;
15679;SDS011;15488;48.114;11.532;2023-05-10T11:43:04;3.03;;;1.33;;
15679;SDS011;15488;48.114;11.532;2023-05-10T11:45:34;1.63;;;1.10;;
15679;SDS011;15488;48.114;11.532;2023-05-10T11:48:02;2.17;;;1.17;;
15679;SDS011;15488;48.114;11.532;2023-05-10T11:50:31;2.87;;;1.03;;
15679;SDS011;15488;48.114;11.532;2023-05-10T11:52:58;1.67;;;0.83;;
15679;SDS011;15488;48.114;11.532;2023-05-10T11:55:26;1.50;;;0.90;;
15679;SDS011;15488;48.114;11.532;2023-05-10T11:57:55;1.73;;;0.67;;
15679;SDS011;15488;48.114;11.532;2023-05-10T12:00:27;1.07;;;0.80;;
15679;SDS011;15488;48.114;11.532;2023-05-10T12:02:55;4.80;;;3.73;;
15679;SDS011;15488;48.114;11.532;2023-05-10T12:05:23;0.83;;;0.77;;
15679;SDS011;15488;48.114;11.532;2023-05-10T12:07:53;0.50;;;0.50;;
15679;SDS011;15488;48.114;11.532;2023-05-10T12:10:35;1.60;;;0.50;;
15679;SDS011;15488;48.114;11.532;2023-05-10T12:13:02;0.77;;;0.43;;
15679;SDS011;15488;48.114;11.532;2023-05-10T12:15:30;1.10;;;0.80;;
15679;SDS011;15488;48.114;11.532;2023-05-10T12:17:57;1.20;;;0.77;;
15679;SDS011;15488;48.114;11.532;2023-05-10T12:20:27;1.47;;;0.90;;
15679;SDS011;15488;48.114;11.532;2023-05-10T12:22:56;1.20;;;0.90;;
15679;SDS011;15488;48.114;11.532;2023-05-10T12:25:29;1.17;;;0.93;;
15679;SDS011;15488;48.114;11.532;2023-05-10T12:27:58;1.53;;;1.00;;
15679;SDS011;15488;48.114;11.532;2023-05-10T12:30:27;2.37;;;1.40;;
15679;SDS011;15488;48.114;11.532;2023-05-10T12:32:59;1.50;;;1.20;;
15679;SDS011;15488;48.114;11.532;2023-05-10T12:35:29;2.10;;;1.10;;
15679;SDS011;15488;48.114;11.532;2023-05-10T12:37:59;1.77;;;0.80;;
15679;SDS011;15488;48.114;11.532;2023-05-10T12:40:26;1.70;;;1.10;;
15679;SDS011;15488;48.114;11.532;2023-05-10T12:42:54;0.80;;;0.80;;
15679;SDS011;15488;48.114;11.532;2023-05-10T12:45:24;1.10;;;1.00;;
15679;SDS011;15488;48.114;11.532;2023-05-10T12:47:52;0.80;;;0.77;;
15679;SDS011;15488;48.114;11.532;2023-05-10T12:50:19;1.00;;;0.60;;
15679;SDS011;15488;48.114;11.532;2023-05-10T12:52:46;3.03;;;0.80;;
15679;SDS011;15488;48.114;11.532;2023-05-10T12:55:15;1.67;;;1.10;;
15679;SDS011;15488;48.114;11.532;2023-05-10T12:57:43;3.07;;;0.83;;
15679;SDS011;15488;48.114;11.532;2023-05-10T13:00:10;1.67;;;0.77;;
15679;SDS011;15488;48.114;11.532;2023-05-10T13:02:39;1.57;;;1.17;;
15679;SDS011;15488;48.114;11.532;2023-05-10T13:05:06;1.83;;;1.20;;
15679;SDS011;15488;48.114;11.532;2023-05-10T13:07:34;2.07;;;0.80;;
15679;SDS011;15488;48.114;11.532;2023-05-10T13:10:01;1.37;;;0.80;;
15679;SDS011;15488;48.114;11.532;2023-05-10T13:12:31;1.53;;;1.00;;
15679;SDS011;15488;48.114;11.532;2023-05-10T13:14:59;1.07;;;0.80;;
15679;SDS011;15488;48.114;11.532;2023-05-10T13:17:26;2.03;;;1.00;;
15679;SDS011;15488;48.114;11.532;2023-05-10T13:19:54;1.97;;;1.20;;
15679;SDS011;15488;48.114;11.532;2023-05-10T13:22:21;3.23;;;1.00;;
15679;SDS011;15488;48.114;11.532;2023-05-10T13:24:49;1.73;;;1.03;;
15679;SDS011;15488;48.114;11.532;2023-05-10T13:27:16;1.00;;;0.80;;
15679;SDS011;15488;48.114;11.532;2023-05-10T13:29:45;1.57;;;0.80;;
15679;SDS011;15488;48.114;11.532;2023-05-10T13:32:12;1.13;;;0.67;;
15679;SDS011;15488;48.114;11.532;2023-05-10T13:34:40;1.73;;;0.80;;
15679;SDS011;15488;48.114;11.532;2023-05-10T13:37:07;1.10;;;0.80;;
15679;SDS011;15488;48.114;11.532;2023-05-10T13:39:35;2.50;;;1.47;;
15679;SDS011;15488;48.114;11.532;2023-05-10T13:42:02;2.63;;;2.17;;
15679;SDS011;15488;48.114;11.532;2023-05-10T13:44:30;1.47;;;0.80;;
15679;SDS011;15488;48.114;11.532;2023-05-10T13:47:00;1.20;;;0.70;;
15679;SDS011;15488;48.114;11.532;2023-05-10T13:49:27;0.87;;;0.70;;
15679;SDS011;15488;48.114;11.532;2023-05-10T13:51:55;1.50;;;1.00;;
15679;SDS011;15488;48.114;11.532;2023-05-10T13:54:23;1.77;;;0.90;;
15679;SDS011;15488;48.114;11.532;2023-05-10T13:56:51;1.60;;;0.83;;
15679;SDS011;15488;48.114;11.532;2023-05-10T13:59:19;1.93;;;0.93;;
15679;SDS011;15488;48.114;11.532;2023-05-10T14:01:46;1.13;;;0.90;;
15679;SDS011;15488;48.114;11.532;2023-05-10T14:04:15;1.00;;;0.90;;
15679;SDS011;15488;48.114;11.532;2023-05-10T14:06:42;2.23;;;0.90;;
15679;SDS011;15488;48.114;11.532;2023-05-10T14:09:10;2.60;;;0.77;;
15679;SDS011;15488;48.114;11.532;2023-05-10T14:11:37;1.73;;;0.70;;
15679;SDS011;15488;48.114;11.532;2023-05-10T14:14:08;2.33;;;0.90;;
15679;SDS011;15488;48.114;11.532;2023-05-10T14:16:35;3.37;;;1.00;;
15679;SDS011;15488;48.114;11.532;2023-05-10T14:19:02;1.40;;;0.80;;
15679;SDS011;15488;48.114;11.532;2023-05-10T14:21:31;2.40;;;1.50;;
15679;SDS011;15488;48.114;11.532;2023-05-10T14:23:59;2.70;;;1.23;;
15679;SDS011;15488;48.114;11.532;2023-05-10T14:26:26;3.13;;;0.90;;
15679;SDS011;15488;48.114;11.532;2023-05-10T14:28:54;1.10;;;0.90;;
15679;SDS011;15488;48.114;11.532;2023-05-10T14:31:22;1.00;;;0.80;;
15679;SDS011;15488;48.114;11.532;2023-05-10T14:33:50;1.17;;;0.80;;
15679;SDS011;15488;48.114;11.532;2023-05-10T14:36:18;0.70;;;0.70;;
15679;SDS011;15488;48.114;11.532;2023-05-10T14:38:54;1.00;;;0.60;;
15679;SDS011;15488;48.114;11.532;2023-05-10T14:41:22;0.97;;;0.67;;
15679;SDS011;15488;48.114;11.532;2023-05-10T14:43:49;1.40;;;0.80;;
15679;SDS011;15488;48.114;11.532;2023-05-10T14:46:17;0.57;;;0.50;;
15679;SDS011;15488;48.114;11.532;2023-05-10T14:48:45;1.13;;;0.60;;